sensor_id;sensor_type;location;lat;lon;timestamp;P1;durP1;ratioP1;P2;durP2;ratioP2
80278;SDS011;70683;52.492;13.416;2023-10-09T00:00:51;3.72;;;2.15;;
80278;SDS011;70683;52.492;13.416;2023-10-09T00:03:19;6.37;;;2.58;;
80278;SDS011;70683;52.492;13.416;2023-10-09T00:05:48;9.13;;;3.67;;
80278;SDS011;70683;52.492;13.416;2023-10-09T00:08:18;10.48;;;5.17;;
80278;SDS011;70683;52.492;13.416;2023-10-09T00:10:51;41.92;;;23.40;;
80278;SDS011;70683;52.492;13.416;2023-10-09T00:13:20;22.02;;;9.60;;
80278;SDS011;70683;52.492;13.416;2023-10-09T00:15:49;16.10;;;6.53;;
80278;SDS011;70683;52.492;13.416;2023-10-09T00:18:24;11.50;;;4.72;;
80278;SDS011;70683;52.492;13.416;2023-10-09T00:20:56;15.50;;;8.00;;
80278;SDS011;70683;52.492;13.416;2023-10-09T00:23:25;15.85;;;7.22;;
80278;SDS011;70683;52.492;13.416;2023-10-09T00:25:51;6.67;;;2.98;;
80278;SDS011;70683;52.492;13.416;2023-10-09T00:28:38;16.37;;;8.30;;
80278;SDS011;70683;52.492;13.416;2023-10-09T00:31:11;10.68;;;4.55;;
80278;SDS011;70683;52.492;13.416;2023-10-09T00:36:09;6.17;;;3.47;;
80278;SDS011;70683;52.492;13.416;2023-10-09T00:38:36;7.97;;;3.92;;
80278;SDS011;70683;52.492;13.416;2023-10-09T00:43:40;7.20;;;3.00;;
80278;SDS011;70683;52.492;13.416;2023-10-09T00:46:08;8.55;;;3.72;;
80278;SDS011;70683;52.492;13.416;2023-10-09T00:48:38;7.90;;;3.42;;
80278;SDS011;70683;52.492;13.416;2023-10-09T00:51:06;5.33;;;2.83;;
80278;SDS011;70683;52.492;13.416;2023-10-09T00:53:39;6.78;;;2.92;;
80278;SDS011;70683;52.492;13.416;2023-10-09T00:56:06;4.85;;;2.70;;
80278;SDS011;70683;52.492;13.416;2023-10-09T00:58:39;7.78;;;3.08;;
80278;SDS011;70683;52.492;13.416;2023-10-09T01:01:09;5.60;;;2.60;;
80278;SDS011;70683;52.492;13.416;2023-10-09T01:03:40;5.47;;;2.42;;
80278;SDS011;70683;52.492;13.416;2023-10-09T01:06:07;5.87;;;2.47;;
80278;SDS011;70683;52.492;13.416;2023-10-09T01:08:42;6.55;;;3.33;;
80278;SDS011;70683;52.492;13.416;2023-10-09T01:11:11;7.10;;;2.72;;
80278;SDS011;70683;52.492;13.416;2023-10-09T01:16:29;4.28;;;2.50;;
80278;SDS011;70683;52.492;13.416;2023-10-09T01:18:57;5.40;;;2.77;;
80278;SDS011;70683;52.492;13.416;2023-10-09T01:21:24;6.80;;;3.40;;
80278;SDS011;70683;52.492;13.416;2023-10-09T01:23:52;7.05;;;3.05;;
80278;SDS011;70683;52.492;13.416;2023-10-09T01:26:25;5.70;;;3.10;;
80278;SDS011;70683;52.492;13.416;2023-10-09T01:28:52;8.48;;;3.98;;
80278;SDS011;70683;52.492;13.416;2023-10-09T01:31:24;8.53;;;4.47;;
80278;SDS011;70683;52.492;13.416;2023-10-09T01:33:55;7.83;;;3.60;;
80278;SDS011;70683;52.492;13.416;2023-10-09T01:36:24;6.70;;;3.67;;
80278;SDS011;70683;52.492;13.416;2023-10-09T01:38:53;6.45;;;3.12;;
80278;SDS011;70683;52.492;13.416;2023-10-09T01:41:19;6.33;;;3.10;;
80278;SDS011;70683;52.492;13.416;2023-10-09T01:43:46;8.05;;;3.08;;
80278;SDS011;70683;52.492;13.416;2023-10-09T01:46:15;5.28;;;2.87;;
80278;SDS011;70683;52.492;13.416;2023-10-09T01:48:44;6.05;;;3.58;;
80278;SDS011;70683;52.492;13.416;2023-10-09T01:51:13;4.95;;;2.85;;
80278;SDS011;70683;52.492;13.416;2023-10-09T01:53:43;5.33;;;2.90;;
80278;SDS011;70683;52.492;13.416;2023-10-09T01:56:12;7.03;;;2.65;;
80278;SDS011;70683;52.492;13.416;2023-10-09T01:58:42;7.55;;;2.83;;
80278;SDS011;70683;52.492;13.416;2023-10-09T02:01:10;6.60;;;2.70;;
80278;SDS011;70683;52.492;13.416;2023-10-09T02:03:37;5.67;;;2.70;;
80278;SDS011;70683;52.492;13.416;2023-10-09T02:06:06;4.85;;;2.72;;
80278;SDS011;70683;52.492;13.416;2023-10-09T02:08:35;5.65;;;2.83;;
80278;SDS011;70683;52.492;13.416;2023-10-09T02:11:01;5.85;;;2.90;;
80278;SDS011;70683;52.492;13.416;2023-10-09T02:13:29;7.40;;;3.40;;
80278;SDS011;70683;52.492;13.416;2023-10-09T02:15:57;6.08;;;3.08;;
80278;SDS011;70683;52.492;13.416;2023-10-09T02:18:27;6.62;;;3.08;;
80278;SDS011;70683;52.492;13.416;2023-10-09T02:21:11;7.15;;;3.20;;
80278;SDS011;70683;52.492;13.416;2023-10-09T02:23:38;7.95;;;3.55;;
80278;SDS011;70683;52.492;13.416;2023-10-09T02:26:09;8.18;;;3.70;;
80278;SDS011;70683;52.492;13.416;2023-10-09T02:28:38;6.95;;;3.30;;
80278;SDS011;70683;52.492;13.416;2023-10-09T02:31:10;6.67;;;3.62;;
80278;SDS011;70683;52.492;13.416;2023-10-09T02:33:38;5.90;;;3.67;;
80278;SDS011;70683;52.492;13.416;2023-10-09T02:36:06;10.40;;;3.40;;
80278;SDS011;70683;52.492;13.416;2023-10-09T02:38:33;10.43;;;3.92;;
80278;SDS011;70683;52.492;13.416;2023-10-09T02:41:03;7.30;;;3.37;;
80278;SDS011;70683;52.492;13.416;2023-10-09T02:43:34;10.20;;;3.85;;
80278;SDS011;70683;52.492;13.416;2023-10-09T02:46:06;10.15;;;4.30;;
80278;SDS011;70683;52.492;13.416;2023-10-09T02:48:36;10.30;;;3.70;;
80278;SDS011;70683;52.492;13.416;2023-10-09T02:51:06;9.03;;;4.10;;
80278;SDS011;70683;52.492;13.416;2023-10-09T02:53:34;7.47;;;4.10;;
80278;SDS011;70683;52.492;13.416;2023-10-09T02:56:01;6.78;;;3.87;;
80278;SDS011;70683;52.492;13.416;2023-10-09T02:58:30;9.13;;;4.20;;
80278;SDS011;70683;52.492;13.416;2023-10-09T03:00:58;7.22;;;3.90;;
80278;SDS011;70683;52.492;13.416;2023-10-09T03:03:25;7.17;;;4.00;;
80278;SDS011;70683;52.492;13.416;2023-10-09T03:05:53;6.47;;;3.50;;
80278;SDS011;70683;52.492;13.416;2023-10-09T03:08:20;6.62;;;3.10;;
80278;SDS011;70683;52.492;13.416;2023-10-09T03:10:47;7.20;;;3.95;;
80278;SDS011;70683;52.492;13.416;2023-10-09T03:13:13;7.80;;;3.40;;
80278;SDS011;70683;52.492;13.416;2023-10-09T03:15:42;7.05;;;3.62;;
80278;SDS011;70683;52.492;13.416;2023-10-09T03:18:09;9.80;;;4.12;;
80278;SDS011;70683;52.492;13.416;2023-10-09T03:20:37;9.13;;;4.12;;
80278;SDS011;70683;52.492;13.416;2023-10-09T03:23:04;7.25;;;3.60;;
80278;SDS011;70683;52.492;13.416;2023-10-09T03:25:32;10.88;;;4.15;;
80278;SDS011;70683;52.492;13.416;2023-10-09T03:28:00;6.67;;;3.30;;
80278;SDS011;70683;52.492;13.416;2023-10-09T03:30:27;10.35;;;4.55;;
80278;SDS011;70683;52.492;13.416;2023-10-09T03:32:54;6.65;;;3.65;;
80278;SDS011;70683;52.492;13.416;2023-10-09T03:35:22;8.38;;;4.15;;
80278;SDS011;70683;52.492;13.416;2023-10-09T03:37:52;11.53;;;3.98;;
80278;SDS011;70683;52.492;13.416;2023-10-09T03:40:23;11.65;;;3.55;;
80278;SDS011;70683;52.492;13.416;2023-10-09T03:42:51;10.85;;;4.00;;
80278;SDS011;70683;52.492;13.416;2023-10-09T03:45:19;7.58;;;4.60;;
80278;SDS011;70683;52.492;13.416;2023-10-09T03:47:51;8.23;;;4.05;;
80278;SDS011;70683;52.492;13.416;2023-10-09T03:50:21;8.75;;;4.12;;
80278;SDS011;70683;52.492;13.416;2023-10-09T03:52:52;8.48;;;3.85;;
80278;SDS011;70683;52.492;13.416;2023-10-09T03:55:20;7.62;;;4.12;;
80278;SDS011;70683;52.492;13.416;2023-10-09T03:57:49;9.20;;;3.98;;
80278;SDS011;70683;52.492;13.416;2023-10-09T04:00:16;8.15;;;3.98;;
80278;SDS011;70683;52.492;13.416;2023-10-09T04:02:45;9.63;;;4.00;;
80278;SDS011;70683;52.492;13.416;2023-10-09T04:05:14;5.78;;;3.70;;
80278;SDS011;70683;52.492;13.416;2023-10-09T04:07:43;8.88;;;3.83;;
80278;SDS011;70683;52.492;13.416;2023-10-09T04:10:11;10.63;;;4.70;;
80278;SDS011;70683;52.492;13.416;2023-10-09T04:12:59;6.90;;;4.08;;
80278;SDS011;70683;52.492;13.416;2023-10-09T04:15:28;9.45;;;5.35;;
80278;SDS011;70683;52.492;13.416;2023-10-09T04:17:56;8.98;;;4.12;;
80278;SDS011;70683;52.492;13.416;2023-10-09T04:20:23;7.37;;;3.98;;
80278;SDS011;70683;52.492;13.416;2023-10-09T04:23:06;6.72;;;3.95;;
80278;SDS011;70683;52.492;13.416;2023-10-09T04:25:34;7.53;;;3.47;;
80278;SDS011;70683;52.492;13.416;2023-10-09T04:28:08;7.30;;;3.40;;
80278;SDS011;70683;52.492;13.416;2023-10-09T04:30:53;7.25;;;3.67;;
80278;SDS011;70683;52.492;13.416;2023-10-09T04:33:21;8.60;;;3.58;;
80278;SDS011;70683;52.492;13.416;2023-10-09T04:35:55;8.18;;;3.70;;
80278;SDS011;70683;52.492;13.416;2023-10-09T04:38:29;10.48;;;5.22;;
80278;SDS011;70683;52.492;13.416;2023-10-09T04:40:59;8.38;;;4.22;;
80278;SDS011;70683;52.492;13.416;2023-10-09T04:43:25;8.05;;;3.92;;
80278;SDS011;70683;52.492;13.416;2023-10-09T04:45:52;9.15;;;4.28;;
80278;SDS011;70683;52.492;13.416;2023-10-09T04:48:24;7.30;;;4.22;;
80278;SDS011;70683;52.492;13.416;2023-10-09T04:51:11;7.15;;;3.83;;
80278;SDS011;70683;52.492;13.416;2023-10-09T04:53:47;6.42;;;3.75;;
80278;SDS011;70683;52.492;13.416;2023-10-09T04:56:16;6.45;;;4.08;;
80278;SDS011;70683;52.492;13.416;2023-10-09T04:58:42;7.50;;;5.00;;
80278;SDS011;70683;52.492;13.416;2023-10-09T05:01:11;8.70;;;4.95;;
80278;SDS011;70683;52.492;13.416;2023-10-09T05:03:40;8.30;;;4.10;;
80278;SDS011;70683;52.492;13.416;2023-10-09T05:06:10;8.25;;;3.87;;
80278;SDS011;70683;52.492;13.416;2023-10-09T05:08:43;6.85;;;3.65;;
80278;SDS011;70683;52.492;13.416;2023-10-09T05:11:11;9.18;;;4.00;;
80278;SDS011;70683;52.492;13.416;2023-10-09T05:16:10;8.05;;;3.25;;
80278;SDS011;70683;52.492;13.416;2023-10-09T05:18:46;5.33;;;2.80;;
80278;SDS011;70683;52.492;13.416;2023-10-09T05:24:11;7.80;;;3.55;;
80278;SDS011;70683;52.492;13.416;2023-10-09T05:26:50;13.30;;;4.00;;
80278;SDS011;70683;52.492;13.416;2023-10-09T05:29:21;6.80;;;3.35;;
80278;SDS011;70683;52.492;13.416;2023-10-09T05:32:06;9.08;;;3.50;;
80278;SDS011;70683;52.492;13.416;2023-10-09T05:34:48;10.10;;;4.53;;
80278;SDS011;70683;52.492;13.416;2023-10-09T05:37:20;8.45;;;4.20;;
80278;SDS011;70683;52.492;13.416;2023-10-09T05:39:53;14.03;;;4.90;;
80278;SDS011;70683;52.492;13.416;2023-10-09T05:42:45;8.65;;;3.80;;
80278;SDS011;70683;52.492;13.416;2023-10-09T05:45:15;9.80;;;4.17;;
80278;SDS011;70683;52.492;13.416;2023-10-09T05:47:59;8.23;;;3.98;;
80278;SDS011;70683;52.492;13.416;2023-10-09T05:50:46;6.55;;;3.85;;
80278;SDS011;70683;52.492;13.416;2023-10-09T05:53:19;7.62;;;4.40;;
80278;SDS011;70683;52.492;13.416;2023-10-09T05:55:57;9.50;;;4.78;;
80278;SDS011;70683;52.492;13.416;2023-10-09T05:58:30;8.15;;;3.83;;
80278;SDS011;70683;52.492;13.416;2023-10-09T06:01:04;12.13;;;3.92;;
80278;SDS011;70683;52.492;13.416;2023-10-09T06:03:34;8.30;;;3.87;;
80278;SDS011;70683;52.492;13.416;2023-10-09T06:06:06;7.87;;;3.85;;
80278;SDS011;70683;52.492;13.416;2023-10-09T06:08:33;12.85;;;4.30;;
80278;SDS011;70683;52.492;13.416;2023-10-09T06:11:20;12.23;;;3.98;;
80278;SDS011;70683;52.492;13.416;2023-10-09T06:13:53;6.47;;;3.77;;
80278;SDS011;70683;52.492;13.416;2023-10-09T06:16:26;5.70;;;3.12;;
80278;SDS011;70683;52.492;13.416;2023-10-09T06:18:59;11.95;;;3.70;;
80278;SDS011;70683;52.492;13.416;2023-10-09T06:21:31;6.95;;;4.17;;
80278;SDS011;70683;52.492;13.416;2023-10-09T06:24:07;7.33;;;4.65;;
80278;SDS011;70683;52.492;13.416;2023-10-09T06:26:37;8.08;;;3.20;;
80278;SDS011;70683;52.492;13.416;2023-10-09T06:29:05;7.53;;;3.90;;
80278;SDS011;70683;52.492;13.416;2023-10-09T06:31:38;7.17;;;3.98;;
80278;SDS011;70683;52.492;13.416;2023-10-09T06:34:10;10.88;;;4.22;;
80278;SDS011;70683;52.492;13.416;2023-10-09T06:36:39;10.45;;;3.58;;
80278;SDS011;70683;52.492;13.416;2023-10-09T06:39:08;5.30;;;3.35;;
80278;SDS011;70683;52.492;13.416;2023-10-09T06:41:40;6.15;;;4.03;;
80278;SDS011;70683;52.492;13.416;2023-10-09T06:44:09;9.78;;;3.55;;
80278;SDS011;70683;52.492;13.416;2023-10-09T06:46:37;8.13;;;4.03;;
80278;SDS011;70683;52.492;13.416;2023-10-09T06:49:09;7.47;;;3.52;;
80278;SDS011;70683;52.492;13.416;2023-10-09T06:51:47;9.38;;;4.15;;
80278;SDS011;70683;52.492;13.416;2023-10-09T06:54:15;6.15;;;3.75;;
80278;SDS011;70683;52.492;13.416;2023-10-09T06:56:42;9.78;;;4.00;;
80278;SDS011;70683;52.492;13.416;2023-10-09T06:59:30;9.60;;;4.60;;
80278;SDS011;70683;52.492;13.416;2023-10-09T07:02:00;14.13;;;6.33;;
80278;SDS011;70683;52.492;13.416;2023-10-09T07:04:32;9.10;;;4.20;;
80278;SDS011;70683;52.492;13.416;2023-10-09T07:07:13;7.45;;;4.20;;
80278;SDS011;70683;52.492;13.416;2023-10-09T07:09:40;9.73;;;4.35;;
80278;SDS011;70683;52.492;13.416;2023-10-09T07:12:09;7.58;;;3.90;;
80278;SDS011;70683;52.492;13.416;2023-10-09T07:14:40;7.28;;;4.08;;
80278;SDS011;70683;52.492;13.416;2023-10-09T07:17:23;8.45;;;3.83;;
80278;SDS011;70683;52.492;13.416;2023-10-09T07:20:10;11.57;;;4.53;;
80278;SDS011;70683;52.492;13.416;2023-10-09T07:22:41;12.35;;;4.67;;
80278;SDS011;70683;52.492;13.416;2023-10-09T07:25:14;15.38;;;7.30;;
80278;SDS011;70683;52.492;13.416;2023-10-09T07:27:42;9.13;;;4.95;;
80278;SDS011;70683;52.492;13.416;2023-10-09T07:30:13;8.00;;;3.47;;
80278;SDS011;70683;52.492;13.416;2023-10-09T07:33:03;8.85;;;4.35;;
80278;SDS011;70683;52.492;13.416;2023-10-09T07:35:44;9.05;;;4.22;;
80278;SDS011;70683;52.492;13.416;2023-10-09T07:38:17;7.55;;;4.30;;
80278;SDS011;70683;52.492;13.416;2023-10-09T07:40:46;8.90;;;4.78;;
80278;SDS011;70683;52.492;13.416;2023-10-09T07:43:19;5.62;;;4.35;;
80278;SDS011;70683;52.492;13.416;2023-10-09T07:45:50;10.45;;;4.67;;
80278;SDS011;70683;52.492;13.416;2023-10-09T07:48:21;7.62;;;4.30;;
80278;SDS011;70683;52.492;13.416;2023-10-09T07:50:49;10.90;;;5.85;;
80278;SDS011;70683;52.492;13.416;2023-10-09T07:53:18;9.95;;;5.15;;
80278;SDS011;70683;52.492;13.416;2023-10-09T07:55:47;8.65;;;5.53;;
80278;SDS011;70683;52.492;13.416;2023-10-09T07:58:20;8.78;;;5.65;;
80278;SDS011;70683;52.492;13.416;2023-10-09T08:00:52;10.03;;;5.53;;
80278;SDS011;70683;52.492;13.416;2023-10-09T08:03:31;7.95;;;5.33;;
80278;SDS011;70683;52.492;13.416;2023-10-09T08:05:58;12.25;;;4.25;;
80278;SDS011;70683;52.492;13.416;2023-10-09T08:08:27;7.67;;;4.22;;
80278;SDS011;70683;52.492;13.416;2023-10-09T08:10:58;9.58;;;4.50;;
80278;SDS011;70683;52.492;13.416;2023-10-09T08:13:31;9.58;;;4.75;;
80278;SDS011;70683;52.492;13.416;2023-10-09T08:16:03;12.60;;;4.97;;
80278;SDS011;70683;52.492;13.416;2023-10-09T08:18:31;10.55;;;5.25;;
80278;SDS011;70683;52.492;13.416;2023-10-09T08:21:01;8.18;;;4.62;;
80278;SDS011;70683;52.492;13.416;2023-10-09T08:23:45;7.17;;;4.20;;
80278;SDS011;70683;52.492;13.416;2023-10-09T08:26:15;11.48;;;5.05;;
80278;SDS011;70683;52.492;13.416;2023-10-09T08:28:45;8.45;;;4.78;;
80278;SDS011;70683;52.492;13.416;2023-10-09T08:31:12;11.00;;;6.17;;
80278;SDS011;70683;52.492;13.416;2023-10-09T08:33:47;11.70;;;6.00;;
80278;SDS011;70683;52.492;13.416;2023-10-09T08:36:16;8.30;;;4.87;;
80278;SDS011;70683;52.492;13.416;2023-10-09T08:38:45;8.25;;;4.87;;
80278;SDS011;70683;52.492;13.416;2023-10-09T08:41:12;7.70;;;4.60;;
80278;SDS011;70683;52.492;13.416;2023-10-09T08:43:47;8.43;;;5.90;;
80278;SDS011;70683;52.492;13.416;2023-10-09T08:46:20;10.10;;;5.58;;
80278;SDS011;70683;52.492;13.416;2023-10-09T08:48:48;12.20;;;7.60;;
80278;SDS011;70683;52.492;13.416;2023-10-09T08:51:16;10.00;;;5.97;;
80278;SDS011;70683;52.492;13.416;2023-10-09T08:53:45;10.93;;;5.90;;
80278;SDS011;70683;52.492;13.416;2023-10-09T08:56:13;9.93;;;4.22;;
80278;SDS011;70683;52.492;13.416;2023-10-09T08:58:41;7.85;;;4.40;;
80278;SDS011;70683;52.492;13.416;2023-10-09T09:01:07;8.80;;;4.72;;
80278;SDS011;70683;52.492;13.416;2023-10-09T09:03:38;10.05;;;6.50;;
80278;SDS011;70683;52.492;13.416;2023-10-09T09:06:09;8.98;;;5.20;;
80278;SDS011;70683;52.492;13.416;2023-10-09T09:08:37;8.08;;;4.53;;
80278;SDS011;70683;52.492;13.416;2023-10-09T09:11:08;11.50;;;5.05;;
80278;SDS011;70683;52.492;13.416;2023-10-09T09:13:41;9.98;;;6.58;;
80278;SDS011;70683;52.492;13.416;2023-10-09T09:16:16;10.10;;;5.60;;
80278;SDS011;70683;52.492;13.416;2023-10-09T09:18:56;7.50;;;4.60;;
80278;SDS011;70683;52.492;13.416;2023-10-09T09:21:30;8.85;;;4.22;;
80278;SDS011;70683;52.492;13.416;2023-10-09T09:24:18;7.83;;;4.50;;
80278;SDS011;70683;52.492;13.416;2023-10-09T09:27:00;7.33;;;4.97;;
80278;SDS011;70683;52.492;13.416;2023-10-09T09:29:41;13.15;;;5.25;;
80278;SDS011;70683;52.492;13.416;2023-10-09T09:32:10;8.63;;;4.60;;
80278;SDS011;70683;52.492;13.416;2023-10-09T09:34:46;13.65;;;5.92;;
80278;SDS011;70683;52.492;13.416;2023-10-09T09:37:22;12.25;;;5.47;;
80278;SDS011;70683;52.492;13.416;2023-10-09T09:39:54;8.20;;;5.17;;
80278;SDS011;70683;52.492;13.416;2023-10-09T09:42:23;5.87;;;4.37;;
80278;SDS011;70683;52.492;13.416;2023-10-09T09:44:52;9.38;;;4.67;;
80278;SDS011;70683;52.492;13.416;2023-10-09T09:47:21;8.73;;;4.65;;
80278;SDS011;70683;52.492;13.416;2023-10-09T09:49:54;12.37;;;6.75;;
80278;SDS011;70683;52.492;13.416;2023-10-09T09:52:29;9.80;;;5.12;;
80278;SDS011;70683;52.492;13.416;2023-10-09T09:55:01;8.95;;;4.35;;
80278;SDS011;70683;52.492;13.416;2023-10-09T09:57:28;8.88;;;4.87;;
80278;SDS011;70683;52.492;13.416;2023-10-09T09:59:54;7.92;;;5.37;;
80278;SDS011;70683;52.492;13.416;2023-10-09T10:02:27;7.40;;;5.10;;
80278;SDS011;70683;52.492;13.416;2023-10-09T10:04:59;11.93;;;6.45;;
80278;SDS011;70683;52.492;13.416;2023-10-09T11:07:57;9.53;;;5.80;;
80278;SDS011;70683;52.492;13.416;2023-10-09T11:10:25;11.78;;;5.72;;
80278;SDS011;70683;52.492;13.416;2023-10-09T11:12:54;9.08;;;6.15;;
80278;SDS011;70683;52.492;13.416;2023-10-09T11:15:38;13.13;;;5.92;;
80278;SDS011;70683;52.492;13.416;2023-10-09T11:18:11;9.15;;;6.55;;
80278;SDS011;70683;52.492;13.416;2023-10-09T11:20:48;9.73;;;6.80;;
80278;SDS011;70683;52.492;13.416;2023-10-09T11:23:22;8.60;;;6.15;;
80278;SDS011;70683;52.492;13.416;2023-10-09T11:25:55;8.33;;;5.50;;
80278;SDS011;70683;52.492;13.416;2023-10-09T11:28:24;10.08;;;7.03;;
80278;SDS011;70683;52.492;13.416;2023-10-09T11:31:11;10.20;;;6.70;;
80278;SDS011;70683;52.492;13.416;2023-10-09T11:33:48;10.55;;;7.05;;
80278;SDS011;70683;52.492;13.416;2023-10-09T11:36:17;10.93;;;6.92;;
80278;SDS011;70683;52.492;13.416;2023-10-09T11:38:51;11.08;;;7.20;;
80278;SDS011;70683;52.492;13.416;2023-10-09T11:41:19;12.63;;;6.60;;
80278;SDS011;70683;52.492;13.416;2023-10-09T11:43:50;10.68;;;7.08;;
80278;SDS011;70683;52.492;13.416;2023-10-09T11:46:20;10.15;;;6.65;;
80278;SDS011;70683;52.492;13.416;2023-10-09T11:49:02;13.22;;;7.35;;
80278;SDS011;70683;52.492;13.416;2023-10-09T11:51:45;8.33;;;7.37;;
80278;SDS011;70683;52.492;13.416;2023-10-09T11:54:31;11.38;;;7.30;;
80278;SDS011;70683;52.492;13.416;2023-10-09T11:56:59;9.68;;;7.08;;
80278;SDS011;70683;52.492;13.416;2023-10-09T11:59:27;13.58;;;8.50;;
80278;SDS011;70683;52.492;13.416;2023-10-09T12:01:56;12.65;;;8.33;;
80278;SDS011;70683;52.492;13.416;2023-10-09T12:07:10;11.20;;;7.33;;
80278;SDS011;70683;52.492;13.416;2023-10-09T12:09:37;11.97;;;7.10;;
80278;SDS011;70683;52.492;13.416;2023-10-09T12:12:05;8.95;;;6.92;;
80278;SDS011;70683;52.492;13.416;2023-10-09T12:14:33;8.20;;;5.80;;
80278;SDS011;70683;52.492;13.416;2023-10-09T12:17:01;12.75;;;6.40;;
80278;SDS011;70683;52.492;13.416;2023-10-09T12:19:32;10.23;;;6.67;;
80278;SDS011;70683;52.492;13.416;2023-10-09T12:24:31;13.35;;;7.20;;
80278;SDS011;70683;52.492;13.416;2023-10-09T12:26:59;8.33;;;6.17;;
80278;SDS011;70683;52.492;13.416;2023-10-09T12:29:26;9.70;;;6.55;;
80278;SDS011;70683;52.492;13.416;2023-10-09T12:31:56;13.43;;;6.53;;
80278;SDS011;70683;52.492;13.416;2023-10-09T12:34:25;11.93;;;6.40;;
80278;SDS011;70683;52.492;13.416;2023-10-09T12:36:53;10.20;;;7.28;;
80278;SDS011;70683;52.492;13.416;2023-10-09T12:39:21;11.95;;;8.03;;
80278;SDS011;70683;52.492;13.416;2023-10-09T12:41:48;12.37;;;8.28;;
80278;SDS011;70683;52.492;13.416;2023-10-09T12:44:17;16.90;;;8.78;;
80278;SDS011;70683;52.492;13.416;2023-10-09T12:46:44;13.08;;;8.58;;
80278;SDS011;70683;52.492;13.416;2023-10-09T12:49:17;12.20;;;8.93;;
80278;SDS011;70683;52.492;13.416;2023-10-09T12:51:47;14.98;;;8.85;;
80278;SDS011;70683;52.492;13.416;2023-10-09T12:54:14;13.45;;;9.50;;
80278;SDS011;70683;52.492;13.416;2023-10-09T12:56:41;14.50;;;9.98;;
80278;SDS011;70683;52.492;13.416;2023-10-09T12:59:07;14.15;;;10.28;;
80278;SDS011;70683;52.492;13.416;2023-10-09T13:01:36;14.50;;;11.12;;
80278;SDS011;70683;52.492;13.416;2023-10-09T13:04:13;14.05;;;9.83;;
80278;SDS011;70683;52.492;13.416;2023-10-09T13:06:42;12.88;;;9.78;;
80278;SDS011;70683;52.492;13.416;2023-10-09T13:09:11;15.72;;;9.88;;
80278;SDS011;70683;52.492;13.416;2023-10-09T13:11:40;13.43;;;9.25;;
80278;SDS011;70683;52.492;13.416;2023-10-09T13:14:08;16.17;;;9.48;;
80278;SDS011;70683;52.492;13.416;2023-10-09T13:19:06;14.98;;;10.65;;
80278;SDS011;70683;52.492;13.416;2023-10-09T13:21:37;15.38;;;11.25;;
80278;SDS011;70683;52.492;13.416;2023-10-09T13:24:06;17.10;;;10.68;;
80278;SDS011;70683;52.492;13.416;2023-10-09T13:26:41;16.48;;;10.90;;
80278;SDS011;70683;52.492;13.416;2023-10-09T13:29:12;15.75;;;11.40;;
80278;SDS011;70683;52.492;13.416;2023-10-09T13:31:40;17.55;;;11.03;;
80278;SDS011;70683;52.492;13.416;2023-10-09T13:34:08;21.10;;;10.38;;
80278;SDS011;70683;52.492;13.416;2023-10-09T13:36:36;22.50;;;10.00;;
80278;SDS011;70683;52.492;13.416;2023-10-09T13:39:04;12.45;;;9.93;;
80278;SDS011;70683;52.492;13.416;2023-10-09T13:41:37;14.23;;;9.75;;
80278;SDS011;70683;52.492;13.416;2023-10-09T13:44:05;18.32;;;12.18;;
80278;SDS011;70683;52.492;13.416;2023-10-09T13:46:32;17.73;;;10.70;;
80278;SDS011;70683;52.492;13.416;2023-10-09T13:49:01;13.22;;;9.58;;
80278;SDS011;70683;52.492;13.416;2023-10-09T13:51:28;14.38;;;10.08;;
80278;SDS011;70683;52.492;13.416;2023-10-09T13:53:57;12.00;;;9.50;;
80278;SDS011;70683;52.492;13.416;2023-10-09T13:56:24;13.75;;;10.28;;
80278;SDS011;70683;52.492;13.416;2023-10-09T13:58:52;12.98;;;10.05;;
80278;SDS011;70683;52.492;13.416;2023-10-09T14:01:20;13.25;;;9.30;;
80278;SDS011;70683;52.492;13.416;2023-10-09T14:03:54;15.88;;;9.50;;
80278;SDS011;70683;52.492;13.416;2023-10-09T14:06:22;16.20;;;10.55;;
80278;SDS011;70683;52.492;13.416;2023-10-09T14:09:03;13.58;;;9.30;;
80278;SDS011;70683;52.492;13.416;2023-10-09T14:11:31;13.50;;;9.33;;
80278;SDS011;70683;52.492;13.416;2023-10-09T14:16:44;15.43;;;8.80;;
80278;SDS011;70683;52.492;13.416;2023-10-09T14:19:12;12.45;;;8.70;;
80278;SDS011;70683;52.492;13.416;2023-10-09T14:21:39;13.35;;;9.45;;
80278;SDS011;70683;52.492;13.416;2023-10-09T14:24:07;13.98;;;9.20;;
80278;SDS011;70683;52.492;13.416;2023-10-09T14:26:40;13.38;;;8.98;;
80278;SDS011;70683;52.492;13.416;2023-10-09T14:29:10;10.53;;;8.58;;
80278;SDS011;70683;52.492;13.416;2023-10-09T14:31:44;13.15;;;8.75;;
80278;SDS011;70683;52.492;13.416;2023-10-09T14:34:15;14.28;;;9.45;;
80278;SDS011;70683;52.492;13.416;2023-10-09T14:36:41;14.58;;;10.05;;
80278;SDS011;70683;52.492;13.416;2023-10-09T14:39:09;11.88;;;8.65;;
80278;SDS011;70683;52.492;13.416;2023-10-09T14:41:38;14.58;;;9.65;;
80278;SDS011;70683;52.492;13.416;2023-10-09T14:44:06;13.00;;;10.23;;
80278;SDS011;70683;52.492;13.416;2023-10-09T14:46:35;13.00;;;9.00;;
80278;SDS011;70683;52.492;13.416;2023-10-09T14:49:02;17.48;;;10.45;;
80278;SDS011;70683;52.492;13.416;2023-10-09T14:51:30;13.25;;;9.28;;
80278;SDS011;70683;52.492;13.416;2023-10-09T14:53:56;12.50;;;9.35;;
80278;SDS011;70683;52.492;13.416;2023-10-09T14:56:24;12.55;;;9.80;;
80278;SDS011;70683;52.492;13.416;2023-10-09T14:58:55;13.55;;;10.30;;
80278;SDS011;70683;52.492;13.416;2023-10-09T15:01:24;12.73;;;9.43;;
80278;SDS011;70683;52.492;13.416;2023-10-09T15:03:56;13.15;;;9.70;;
80278;SDS011;70683;52.492;13.416;2023-10-09T15:06:25;16.40;;;10.40;;
80278;SDS011;70683;52.492;13.416;2023-10-09T15:08:56;18.70;;;10.63;;
80278;SDS011;70683;52.492;13.416;2023-10-09T15:11:26;15.90;;;11.45;;
80278;SDS011;70683;52.492;13.416;2023-10-09T15:13:54;14.95;;;10.75;;
80278;SDS011;70683;52.492;13.416;2023-10-09T15:16:23;20.60;;;13.88;;
80278;SDS011;70683;52.492;13.416;2023-10-09T15:18:55;27.70;;;17.52;;
80278;SDS011;70683;52.492;13.416;2023-10-09T15:24:04;15.85;;;11.60;;
80278;SDS011;70683;52.492;13.416;2023-10-09T15:26:31;20.82;;;12.47;;
80278;SDS011;70683;52.492;13.416;2023-10-09T15:29:00;19.65;;;12.37;;
80278;SDS011;70683;52.492;13.416;2023-10-09T15:31:29;18.70;;;11.53;;
80278;SDS011;70683;52.492;13.416;2023-10-09T15:33:58;17.30;;;11.22;;
80278;SDS011;70683;52.492;13.416;2023-10-09T15:36:25;19.05;;;12.40;;
80278;SDS011;70683;52.492;13.416;2023-10-09T15:38:54;13.93;;;10.58;;
80278;SDS011;70683;52.492;13.416;2023-10-09T15:41:23;18.07;;;11.08;;
80278;SDS011;70683;52.492;13.416;2023-10-09T15:43:50;14.15;;;10.93;;
80278;SDS011;70683;52.492;13.416;2023-10-09T15:46:17;15.30;;;11.80;;
80278;SDS011;70683;52.492;13.416;2023-10-09T15:48:43;22.15;;;11.45;;
80278;SDS011;70683;52.492;13.416;2023-10-09T15:51:12;18.12;;;13.68;;
80278;SDS011;70683;52.492;13.416;2023-10-09T15:53:43;20.80;;;13.40;;
80278;SDS011;70683;52.492;13.416;2023-10-09T15:56:11;17.40;;;11.33;;
80278;SDS011;70683;52.492;13.416;2023-10-09T15:58:39;18.75;;;10.95;;
80278;SDS011;70683;52.492;13.416;2023-10-09T16:01:11;18.87;;;11.13;;
80278;SDS011;70683;52.492;13.416;2023-10-09T16:03:39;15.80;;;10.60;;
80278;SDS011;70683;52.492;13.416;2023-10-09T16:06:10;13.03;;;9.83;;
80278;SDS011;70683;52.492;13.416;2023-10-09T16:08:39;15.58;;;10.90;;
80278;SDS011;70683;52.492;13.416;2023-10-09T16:11:07;15.88;;;9.70;;
80278;SDS011;70683;52.492;13.416;2023-10-09T16:13:35;12.47;;;9.60;;